createdAt,value
2023-03-25T00:00:33.154Z,96274.97
2023-03-25T00:01:35.148Z,96280.19
2023-03-25T00:02:38.376Z,96279.97
2023-03-25T00:03:46.796Z,96272.16
2023-03-25T00:04:54.993Z,96264.31
2023-03-25T00:05:57.663Z,96264.53
2023-03-25T00:06:59.668Z,96263.16
2023-03-25T00:08:01.430Z,96265.41
2023-03-25T00:09:04.177Z,96261.63
2023-03-25T00:10:06.680Z,96269.88
2023-03-25T00:11:08.613Z,96257.69
2023-03-25T00:12:10.426Z,96253.53
2023-03-25T00:13:13.868Z,96256.91
2023-03-25T00:14:17.601Z,96260.31
2023-03-25T00:15:19.990Z,96248.09
2023-03-25T00:16:21.915Z,96249.47
2023-03-25T00:17:23.871Z,96240.28
2023-03-25T00:18:26.847Z,96241.47
2023-03-25T00:19:28.760Z,96243.66
2023-03-25T00:20:32.658Z,96239.03
2023-03-25T00:21:34.608Z,96236.22
2023-03-25T00:22:41.456Z,96234.81
2023-03-25T00:23:43.895Z,96235.84
2023-03-25T00:24:45.667Z,96246.28
2023-03-25T00:25:47.835Z,96251.50
2023-03-25T00:26:49.717Z,96252.06
2023-03-25T00:27:51.656Z,96245.03
2023-03-25T00:28:53.435Z,96259.44
2023-03-25T00:29:55.731Z,96253.81
2023-03-25T00:31:01.719Z,96257.78
2023-03-25T00:32:03.495Z,96259.97
2023-03-25T00:33:05.379Z,96255.75
2023-03-25T00:34:07.932Z,96254.19
2023-03-25T00:35:10.129Z,96254.97
2023-03-25T00:36:15.290Z,96250.53
2023-03-25T00:37:21.934Z,96246.34
2023-03-25T00:38:24.791Z,96238.94
2023-03-25T00:39:26.667Z,96238.59
2023-03-25T00:40:29.606Z,96242.22
2023-03-25T00:41:31.595Z,96240.97
2023-03-25T00:42:35.158Z,96251.19
2023-03-25T00:43:36.970Z,96257.69
2023-03-25T00:44:38.730Z,96250.72
2023-03-25T00:45:40.624Z,96253.72
2023-03-25T00:46:42.467Z,96247.84
2023-03-25T00:47:44.337Z,96247.44
2023-03-25T00:48:46.566Z,96251.03
2023-03-25T00:49:49.012Z,96248.44
2023-03-25T00:50:50.999Z,96246.66
2023-03-25T00:51:53.993Z,96249.25
2023-03-25T00:52:56.140Z,96251.41
2023-03-25T00:54:01.638Z,96255.47
2023-03-25T00:55:04.916Z,96260.06
2023-03-25T00:56:06.981Z,96264.59
2023-03-25T00:57:08.858Z,96255.22
2023-03-25T00:58:10.854Z,96251.41
2023-03-25T00:59:12.666Z,96256.19
2023-03-25T01:00:16.186Z,96254.16
2023-03-25T01:01:23.713Z,96256.19
2023-03-25T01:02:26.011Z,96253.78
2023-03-25T01:03:29.282Z,96247.19
2023-03-25T01:04:31.254Z,96258.19
2023-03-25T01:05:33.514Z,96265.03
2023-03-25T01:06:36.351Z,96269.66
2023-03-25T01:07:38.947Z,96272.66
2023-03-25T01:08:42.296Z,96277.88
2023-03-25T01:09:46.975Z,96271.09
2023-03-25T01:10:48.783Z,96266.28
2023-03-25T01:11:50.681Z,96269.84
2023-03-25T01:12:52.445Z,96275.44
2023-03-25T01:13:55.669Z,96266.41
2023-03-25T01:14:57.567Z,96264.16
2023-03-25T01:15:59.418Z,96262.50
2023-03-25T01:17:01.329Z,96260.06
2023-03-25T01:18:03.097Z,96265.63
2023-03-25T01:19:05.039Z,96266.00
2023-03-25T01:20:09.391Z,96274.19
2023-03-25T01:21:11.276Z,96274.59
2023-03-25T01:22:13.286Z,96275.16
2023-03-25T01:23:15.202Z,96275.16
2023-03-25T01:24:17.063Z,96267.13
2023-03-25T01:25:19.091Z,96276.78
2023-03-25T01:26:20.859Z,96281.41
2023-03-25T01:27:24.929Z,96286.84
2023-03-25T01:28:28.519Z,96286.22
2023-03-25T01:29:30.543Z,96287.84
2023-03-25T01:30:32.376Z,96290.06
2023-03-25T01:31:34.223Z,96270.41
2023-03-25T01:32:36.144Z,96275.03
2023-03-25T01:33:38.136Z,96290.47
2023-03-25T01:34:39.899Z,96284.47
2023-03-25T01:35:42.310Z,96284.88
2023-03-25T01:36:46.809Z,96273.09
2023-03-25T01:37:48.879Z,96277.66
2023-03-25T01:38:51.065Z,96277.22
2023-03-25T01:39:53.231Z,96275.03
2023-03-25T01:40:55.080Z,96277.50
2023-03-25T01:41:56.946Z,96272.13
2023-03-25T01:42:58.831Z,96261.78
2023-03-25T01:44:09.837Z,96261.19
2023-03-25T01:45:14.370Z,96255.97
2023-03-25T01:46:17.638Z,96259.81
2023-03-25T01:47:19.703Z,96253.06
2023-03-25T01:48:24.533Z,96257.88
2023-03-25T01:49:33.782Z,96262.31
2023-03-25T01:50:36.761Z,96261.53
2023-03-25T01:51:40.750Z,96262.09
2023-03-25T01:52:48.165Z,96265.44
2023-03-25T01:53:51.265Z,96265.44
2023-03-25T01:54:54.649Z,96260.66
2023-03-25T01:55:56.892Z,96257.25
2023-03-25T01:56:59.475Z,96259.06
2023-03-25T01:58:02.854Z,96253.44
2023-03-25T01:59:06.389Z,96257.78
2023-03-25T02:00:09.807Z,96253.00
2023-03-25T02:01:13.884Z,96258.66
2023-03-25T02:02:18.015Z,96252.41
2023-03-25T02:03:21.755Z,96241.00
2023-03-25T02:04:39.452Z,96248.63
2023-03-25T02:05:44.114Z,96246.69
2023-03-25T02:06:51.212Z,96248.25
2023-03-25T02:07:54.926Z,96247.25
2023-03-25T02:08:58.546Z,96242.84
2023-03-25T02:10:02.642Z,96235.03
2023-03-25T02:11:05.197Z,96242.44
2023-03-25T02:12:07.038Z,96246.63
2023-03-25T02:13:08.925Z,96236.41
2023-03-25T02:14:13.286Z,96240.41
2023-03-25T02:15:16.665Z,96241.97
2023-03-25T02:16:18.446Z,96237.69
2023-03-25T02:17:27.824Z,96241.75
2023-03-25T02:18:29.550Z,96240.56
2023-03-25T02:19:47.182Z,96241.94
2023-03-25T02:21:18.361Z,96240.50
2023-03-25T02:22:25.987Z,96245.53
2023-03-25T02:23:42.319Z,96258.16
2023-03-25T02:25:10.475Z,96259.53
2023-03-25T02:26:12.366Z,96253.13
2023-03-25T02:27:46.257Z,96252.03
2023-03-25T02:29:05.369Z,96258.19
2023-03-25T02:30:32.494Z,96252.84
2023-03-25T02:31:37.440Z,96249.88
2023-03-25T02:32:39.334Z,96252.38
2023-03-25T02:34:14.879Z,96250.06
2023-03-25T02:35:19.676Z,96255.91
2023-03-25T02:36:37.627Z,96247.69
2023-03-25T02:38:06.659Z,96253.28
2023-03-25T02:39:45.845Z,96251.41
2023-03-25T02:40:47.780Z,96255.63
2023-03-25T02:41:58.681Z,96251.97
2023-03-25T02:43:31.356Z,96245.91
2023-03-25T02:44:53.664Z,96250.28
2023-03-25T02:46:01.787Z,96247.06
2023-03-25T02:47:09.393Z,96248.63
2023-03-25T02:48:26.343Z,96247.06
2023-03-25T02:49:56.461Z,96240.03
2023-03-25T02:51:02.089Z,96237.63
2023-03-25T02:52:17.583Z,96242.69
2023-03-25T02:53:39.072Z,96252.16
2023-03-25T02:54:45.233Z,96249.09
2023-03-25T02:55:49.843Z,96251.09
2023-03-25T02:56:57.854Z,96251.44
2023-03-25T02:58:05.125Z,96254.69
2023-03-25T02:59:10.177Z,96250.50
2023-03-25T03:00:18.094Z,96251.09
2023-03-25T03:01:23.065Z,96247.25
2023-03-25T03:02:27.891Z,96257.03
2023-03-25T03:03:29.943Z,96246.63
2023-03-25T03:04:32.045Z,96260.09
2023-03-25T03:05:41.014Z,96262.09
2023-03-25T03:06:44.432Z,96259.91
2023-03-25T03:07:51.821Z,96247.53
2023-03-25T03:09:05.229Z,96241.50
2023-03-25T03:10:32.914Z,96250.50
2023-03-25T03:12:21.206Z,96250.94
2023-03-25T03:13:53.823Z,96248.84
2023-03-25T03:15:34.589Z,96256.28
2023-03-25T03:16:58.740Z,96245.13
2023-03-25T03:18:14.089Z,96243.56
2023-03-25T03:19:16.035Z,96236.72
2023-03-25T03:20:18.450Z,96235.88
2023-03-25T03:21:23.687Z,96231.63
2023-03-25T03:22:30.348Z,96237.41
2023-03-25T03:23:37.298Z,96245.22
2023-03-25T03:24:42.347Z,96244.59
2023-03-25T03:25:51.004Z,96243.38
2023-03-25T03:26:56.442Z,96243.97
2023-03-25T03:28:04.957Z,96245.78
2023-03-25T03:29:12.725Z,96250.16
2023-03-25T03:30:26.854Z,96248.78
2023-03-25T03:31:48.855Z,96253.63
2023-03-25T03:33:02.249Z,96242.63
2023-03-25T03:34:10.860Z,96240.72
2023-03-25T03:35:29.367Z,96259.34
2023-03-25T03:36:33.015Z,96242.28
2023-03-25T03:37:38.112Z,96242.47
2023-03-25T03:38:43.568Z,96238.44
2023-03-25T03:39:46.465Z,96242.22
2023-03-25T03:40:52.058Z,96245.81
2023-03-25T03:41:55.660Z,96241.72
2023-03-25T03:42:57.461Z,96243.97
2023-03-25T03:44:03.021Z,96243.41
2023-03-25T03:45:14.429Z,96250.56
2023-03-25T03:46:30.441Z,96254.56
2023-03-25T03:47:37.101Z,96248.34
2023-03-25T03:48:42.038Z,96236.13
2023-03-25T03:49:46.511Z,96238.09
2023-03-25T03:50:53.774Z,96234.66
2023-03-25T03:52:22.576Z,96239.66
2023-03-25T03:53:30.351Z,96238.84
2023-03-25T03:54:38.886Z,96244.91
2023-03-25T03:55:43.495Z,96260.97
2023-03-25T03:56:53.744Z,96259.81
2023-03-25T03:58:03.816Z,96246.06
2023-03-25T03:59:11.445Z,96247.09
2023-03-25T04:00:18.306Z,96244.94
2023-03-25T04:01:28.317Z,96251.72
2023-03-25T04:02:39.023Z,96259.91
2023-03-25T04:03:52.501Z,96257.09
2023-03-25T04:04:54.897Z,96246.91
2023-03-25T04:06:27.931Z,96237.28
2023-03-25T04:07:41.806Z,96240.91
2023-03-25T04:09:19.162Z,96246.38
2023-03-25T04:10:52.997Z,96250.19
2023-03-25T04:12:06.374Z,96250.19
2023-03-25T04:13:16.534Z,96241.94
2023-03-25T04:14:19.042Z,96246.38
2023-03-25T04:15:21.801Z,96250.34
2023-03-25T04:16:25.146Z,96257.56
2023-03-25T04:17:30.555Z,96253.56
2023-03-25T04:18:34.221Z,96252.94
2023-03-25T04:19:36.396Z,96248.94
2023-03-25T04:20:45.168Z,96253.19
2023-03-25T04:21:51.036Z,96250.00
2023-03-25T04:22:53.159Z,96256.38
2023-03-25T04:23:55.222Z,96252.78
2023-03-25T04:25:00.508Z,96251.16
2023-03-25T04:26:03.131Z,96256.75
2023-03-25T04:27:05.182Z,96266.16
2023-03-25T04:28:07.384Z,96269.53
2023-03-25T04:29:10.451Z,96270.31
2023-03-25T04:30:12.772Z,96272.28
2023-03-25T04:31:15.936Z,96274.25
2023-03-25T04:32:18.347Z,96275.44
2023-03-25T04:33:21.115Z,96280.03
2023-03-25T04:34:23.269Z,96270.59
2023-03-25T04:35:26.149Z,96271.97
2023-03-25T04:36:29.050Z,96263.38
2023-03-25T04:37:34.052Z,96253.16
2023-03-25T04:38:38.006Z,96266.38
2023-03-25T04:39:40.048Z,96262.59
2023-03-25T04:40:47.250Z,96270.22
2023-03-25T04:41:50.587Z,96274.66
2023-03-25T04:42:53.540Z,96277.03
2023-03-25T04:43:55.639Z,96281.47
2023-03-25T04:44:57.562Z,96271.03
2023-03-25T04:46:00.602Z,96258.03
2023-03-25T04:47:03.059Z,96262.00
2023-03-25T04:48:06.322Z,96256.16
2023-03-25T04:49:14.512Z,96264.75
2023-03-25T04:50:23.940Z,96269.78
2023-03-25T04:51:25.959Z,96269.56
2023-03-25T04:52:27.908Z,96268.22
2023-03-25T04:53:30.513Z,96278.69
2023-03-25T04:54:32.528Z,96274.66
2023-03-25T04:55:34.955Z,96276.59
2023-03-25T04:56:37.115Z,96268.59
2023-03-25T04:57:39.060Z,96259.47
2023-03-25T04:58:40.976Z,96263.63
2023-03-25T04:59:43.118Z,96266.44
2023-03-25T05:00:50.236Z,96261.47
2023-03-25T05:01:53.038Z,96263.06
2023-03-25T05:02:56.514Z,96253.22
2023-03-25T05:04:07.598Z,96259.91
2023-03-25T05:05:09.637Z,96249.34
2023-03-25T05:06:11.615Z,96260.34
2023-03-25T05:07:13.585Z,96270.97
2023-03-25T05:08:15.587Z,96271.56
2023-03-25T05:09:20.562Z,96274.75
2023-03-25T05:10:26.645Z,96271.53
2023-03-25T05:11:29.612Z,96280.94
2023-03-25T05:12:32.328Z,96285.50
2023-03-25T05:13:34.267Z,96291.94
2023-03-25T05:14:36.314Z,96296.59
2023-03-25T05:15:41.153Z,96299.22
2023-03-25T05:16:44.107Z,96322.88
2023-03-25T05:17:46.402Z,96329.84
2023-03-25T05:18:48.773Z,96324.25
2023-03-25T05:19:53.248Z,96305.19
2023-03-25T05:20:57.274Z,96288.75
2023-03-25T05:22:01.881Z,96301.38
2023-03-25T05:23:04.873Z,96304.38
2023-03-25T05:24:10.570Z,96300.34
2023-03-25T05:25:12.575Z,96280.09
2023-03-25T05:26:14.749Z,96281.13
2023-03-25T05:27:20.514Z,96286.47
2023-03-25T05:28:22.569Z,96285.06
2023-03-25T05:29:24.524Z,96288.09
2023-03-25T05:30:32.971Z,96288.34
2023-03-25T05:31:35.661Z,96290.59
2023-03-25T05:32:41.420Z,96280.78
2023-03-25T05:33:43.832Z,96283.34
2023-03-25T05:34:49.282Z,96295.13
2023-03-25T05:35:51.572Z,96285.91
2023-03-25T05:36:54.439Z,96298.28
2023-03-25T05:37:57.085Z,96311.88
2023-03-25T05:38:59.557Z,96314.88
2023-03-25T05:40:02.552Z,96314.25
2023-03-25T05:41:16.873Z,96316.81
2023-03-25T05:42:23.372Z,96309.41
2023-03-25T05:43:25.303Z,96306.16
2023-03-25T05:44:27.326Z,96301.94
2023-03-25T05:45:29.686Z,96313.44
2023-03-25T05:46:31.608Z,96314.63
2023-03-25T05:47:33.713Z,96313.44
2023-03-25T05:48:35.914Z,96310.84
2023-03-25T05:49:38.155Z,96302.88
2023-03-25T05:50:43.007Z,96309.09
2023-03-25T05:51:45.331Z,96313.28
2023-03-25T05:52:49.867Z,96311.28
2023-03-25T05:53:52.045Z,96309.66
2023-03-25T05:54:54.061Z,96313.06
2023-03-25T05:55:56.080Z,96315.91
2023-03-25T05:56:58.175Z,96323.13
2023-03-25T05:58:00.264Z,96325.72
2023-03-25T05:59:03.065Z,96323.47
2023-03-25T06:00:08.252Z,96331.94
2023-03-25T06:01:25.448Z,96320.13
2023-03-25T06:02:35.777Z,96316.31
2023-03-25T06:03:38.821Z,96319.50
2023-03-25T06:04:43.789Z,96321.09
2023-03-25T06:05:45.855Z,96329.66
2023-03-25T06:06:48.047Z,96321.84
2023-03-25T06:07:50.337Z,96334.66
2023-03-25T06:08:52.392Z,96320.28
2023-03-25T06:09:54.480Z,96317.47
2023-03-25T06:11:01.031Z,96307.06
2023-03-25T06:12:04.272Z,96308.44
2023-03-25T06:13:07.126Z,96319.28
2023-03-25T06:14:09.461Z,96323.47
2023-03-25T06:15:12.223Z,96323.88
2023-03-25T06:16:14.379Z,96319.84
2023-03-25T06:17:19.169Z,96322.44
2023-03-25T06:18:24.857Z,96323.63
2023-03-25T06:19:27.178Z,96323.63
2023-03-25T06:20:29.131Z,96325.63
2023-03-25T06:21:33.634Z,96328.16
2023-03-25T06:22:38.155Z,96328.13
2023-03-25T06:23:40.261Z,96328.50
2023-03-25T06:24:43.198Z,96329.69
2023-03-25T06:25:45.219Z,96320.69
2023-03-25T06:26:47.178Z,96324.88
2023-03-25T06:27:50.780Z,96320.88
2023-03-25T06:28:53.022Z,96326.56
2023-03-25T06:29:55.085Z,96333.78
2023-03-25T06:30:57.628Z,96330.19
2023-03-25T06:31:59.662Z,96331.56
2023-03-25T06:33:06.348Z,96330.34
2023-03-25T06:34:08.295Z,96322.91
2023-03-25T06:35:12.117Z,96315.69
2023-03-25T06:36:18.934Z,96321.28
2023-03-25T06:37:22.149Z,96328.06
2023-03-25T06:38:24.205Z,96317.66
2023-03-25T06:39:26.703Z,96320.88
2023-03-25T06:40:28.773Z,96327.25
2023-03-25T06:41:30.682Z,96333.63
2023-03-25T06:42:33.012Z,96334.81
2023-03-25T06:43:35.389Z,96329.59
2023-03-25T06:44:37.208Z,96332.19
2023-03-25T06:45:39.297Z,96326.41
2023-03-25T06:46:41.426Z,96326.41
2023-03-25T06:47:43.578Z,96326.41
2023-03-25T06:48:45.575Z,96325.38
2023-03-25T06:49:47.596Z,96321.34
2023-03-25T06:50:49.632Z,96325.56
2023-03-25T06:51:51.936Z,96340.75
2023-03-25T06:52:54.004Z,96334.75
2023-03-25T06:53:56.170Z,96331.50
2023-03-25T06:54:58.382Z,96336.56
2023-03-25T06:56:00.370Z,96331.56
2023-03-25T06:57:02.429Z,96334.81
2023-03-25T06:58:04.982Z,96338.19
2023-03-25T06:59:07.096Z,96347.41
2023-03-25T07:00:12.579Z,96338.16
2023-03-25T07:01:14.579Z,96346.72
2023-03-25T07:02:16.617Z,96333.03
2023-03-25T07:03:18.648Z,96331.81
2023-03-25T07:04:20.940Z,96329.78
2023-03-25T07:05:23.055Z,96326.19
2023-03-25T07:06:25.669Z,96319.75
2023-03-25T07:07:27.455Z,96318.31
2023-03-25T07:08:29.543Z,96316.31
2023-03-25T07:09:31.594Z,96310.31
2023-03-25T07:10:33.584Z,96313.91
2023-03-25T07:11:35.854Z,96313.91
2023-03-25T07:12:37.775Z,96315.38
2023-03-25T07:13:39.852Z,96312.03
2023-03-25T07:14:41.954Z,96315.84
2023-03-25T07:15:43.931Z,96303.84
2023-03-25T07:16:46.237Z,96307.03
2023-03-25T07:17:49.681Z,96316.81
2023-03-25T07:18:52.457Z,96315.38
2023-03-25T07:19:54.642Z,96321.97
2023-03-25T07:20:56.693Z,96322.34
2023-03-25T07:21:58.623Z,96327.53
2023-03-25T07:23:01.113Z,96331.31
2023-03-25T07:24:03.383Z,96334.50
2023-03-25T07:25:05.995Z,96335.91
2023-03-25T07:26:08.085Z,96353.72
2023-03-25T07:27:14.649Z,96351.31
2023-03-25T07:28:16.921Z,96345.09
2023-03-25T07:29:19.270Z,96347.25
2023-03-25T07:30:21.227Z,96344.88
2023-03-25T07:31:23.337Z,96334.06
2023-03-25T07:32:25.624Z,96352.59
2023-03-25T07:33:27.741Z,96346.94
2023-03-25T07:34:29.835Z,96345.88
2023-03-25T07:35:32.143Z,96335.41
2023-03-25T07:36:34.192Z,96336.00
2023-03-25T07:37:36.208Z,96342.72
2023-03-25T07:38:38.387Z,96332.06
2023-03-25T07:39:40.461Z,96337.09
2023-03-25T07:40:42.444Z,96344.69
2023-03-25T07:41:44.532Z,96341.06
2023-03-25T07:42:46.717Z,96353.31
2023-03-25T07:43:48.725Z,96362.97
2023-03-25T07:44:50.741Z,96359.13
2023-03-25T07:45:54.344Z,96354.69
2023-03-25T07:46:56.395Z,96357.09
2023-03-25T07:48:01.601Z,96362.69
2023-03-25T07:49:03.609Z,96365.88
2023-03-25T07:50:06.433Z,96353.41
2023-03-25T07:51:09.482Z,96341.72
2023-03-25T07:52:11.477Z,96352.97
2023-03-25T07:53:13.458Z,96346.94
2023-03-25T07:54:15.676Z,96350.34
2023-03-25T07:55:17.880Z,96350.94
2023-03-25T07:56:19.836Z,96339.28
2023-03-25T07:57:22.208Z,96342.69
2023-03-25T07:58:23.972Z,96345.28
2023-03-25T07:59:28.063Z,96348.47
2023-03-25T08:00:31.251Z,96352.09
2023-03-25T08:01:33.227Z,96344.06
2023-03-25T08:02:35.231Z,96336.00
2023-03-25T08:03:40.171Z,96339.00
2023-03-25T08:04:42.527Z,96350.44
2023-03-25T08:05:48.239Z,96348.41
2023-03-25T08:06:50.374Z,96347.16
2023-03-25T08:07:53.128Z,96354.00
2023-03-25T08:08:56.121Z,96353.22
2023-03-25T08:09:58.074Z,96350.59
2023-03-25T08:11:00.472Z,96353.78
2023-03-25T08:12:02.832Z,96352.09
2023-03-25T08:13:04.839Z,96352.25
2023-03-25T08:14:06.912Z,96346.16
2023-03-25T08:15:09.661Z,96331.63
2023-03-25T08:16:15.696Z,96331.78
2023-03-25T08:17:17.922Z,96335.56
2023-03-25T08:18:20.215Z,96342.34
2023-03-25T08:19:27.705Z,96345.56
2023-03-25T08:20:30.239Z,96351.34
2023-03-25T08:21:32.278Z,96347.50
2023-03-25T08:22:34.722Z,96341.84
2023-03-25T08:23:37.601Z,96333.56
2023-03-25T08:24:39.577Z,96328.91
2023-03-25T08:25:42.253Z,96326.06
2023-03-25T08:26:44.352Z,96327.69
2023-03-25T08:27:46.350Z,96330.09
2023-03-25T08:28:48.836Z,96336.09
2023-03-25T08:29:57.627Z,96338.13
2023-03-25T08:31:02.660Z,96346.53
2023-03-25T08:32:04.782Z,96349.94
2023-03-25T08:33:07.835Z,96347.13
2023-03-25T08:34:09.890Z,96342.91
2023-03-25T08:35:13.885Z,96346.66
2023-03-25T08:36:20.211Z,96347.47
2023-03-25T08:37:24.146Z,96342.59
2023-03-25T08:38:32.448Z,96330.66
2023-03-25T08:39:40.187Z,96332.84
2023-03-25T08:40:44.541Z,96331.59
2023-03-25T08:41:46.657Z,96335.00
2023-03-25T08:42:48.582Z,96341.84
2023-03-25T08:43:50.881Z,96347.44
2023-03-25T08:44:52.904Z,96353.44
2023-03-25T08:45:55.005Z,96364.25
2023-03-25T08:46:57.068Z,96366.63
2023-03-25T08:47:59.465Z,96363.44
2023-03-25T08:49:01.579Z,96363.91
2023-03-25T08:50:04.332Z,96360.72
2023-03-25T08:51:06.725Z,96364.56
2023-03-25T08:52:08.955Z,96372.63
2023-03-25T08:53:11.058Z,96367.84
2023-03-25T08:54:13.142Z,96361.81
2023-03-25T08:55:16.526Z,96353.97
2023-03-25T08:56:18.562Z,96350.13
2023-03-25T08:57:20.839Z,96352.28
2023-03-25T08:58:23.963Z,96353.88
2023-03-25T08:59:26.076Z,96355.69
2023-03-25T09:00:28.512Z,96367.97
2023-03-25T09:01:31.149Z,96366.16
2023-03-25T09:02:33.174Z,96365.47
2023-03-25T09:03:35.280Z,96359.25
2023-03-25T09:04:39.254Z,96365.06
2023-03-25T09:05:41.328Z,96374.25
2023-03-25T09:06:47.763Z,96366.78
2023-03-25T09:07:50.777Z,96363.94
2023-03-25T09:08:52.639Z,96363.28
2023-03-25T09:09:54.643Z,96367.72
2023-03-25T09:10:56.704Z,96359.22
2023-03-25T09:11:58.796Z,96360.25
2023-03-25T09:13:00.963Z,96361.81
2023-03-25T09:14:04.108Z,96368.19
2023-03-25T09:15:06.794Z,96360.34
2023-03-25T09:16:09.832Z,96360.34
2023-03-25T09:17:11.878Z,96366.63
2023-03-25T09:18:14.093Z,96365.22
2023-03-25T09:19:16.261Z,96350.78
2023-03-25T09:20:18.996Z,96350.38
2023-03-25T09:21:21.152Z,96351.03
2023-03-25T09:22:25.196Z,96357.31
2023-03-25T09:23:27.374Z,96353.50
2023-03-25T09:24:29.353Z,96345.19
2023-03-25T09:25:31.370Z,96338.13
2023-03-25T09:26:33.437Z,96330.06
2023-03-25T09:27:36.431Z,96324.69
2023-03-25T09:28:38.480Z,96315.69
2023-03-25T09:29:41.189Z,96314.66
2023-03-25T09:30:43.213Z,96320.81
2023-03-25T09:31:45.467Z,96325.59
2023-03-25T09:32:47.470Z,96317.28
2023-03-25T09:33:49.469Z,96330.94
2023-03-25T09:34:51.969Z,96331.97
2023-03-25T09:35:54.680Z,96330.69
2023-03-25T09:36:57.287Z,96328.78
2023-03-25T09:37:59.290Z,96333.31
2023-03-25T09:39:01.570Z,96329.19
2023-03-25T09:40:05.491Z,96326.91
2023-03-25T09:41:48.134Z,96338.06
2023-03-25T09:43:04.963Z,96349.03
2023-03-25T09:44:18.673Z,96335.38
2023-03-25T09:45:33.022Z,96343.66
2023-03-25T09:46:38.601Z,96337.81
2023-03-25T09:48:04.336Z,96315.16
2023-03-25T09:49:16.988Z,96302.94
2023-03-25T09:50:21.496Z,96294.03
2023-03-25T09:51:36.961Z,96301.81
2023-03-25T09:52:52.777Z,96297.13
2023-03-25T09:54:25.623Z,96288.44
2023-03-25T09:55:32.681Z,96286.34
2023-03-25T09:56:42.102Z,96285.72
2023-03-25T09:57:49.532Z,96288.75
2023-03-25T09:59:01.904Z,96287.69
2023-03-25T10:00:07.374Z,96290.13
2023-03-25T10:01:27.199Z,96302.13
2023-03-25T10:02:41.732Z,96301.97
2023-03-25T10:03:59.796Z,96295.13
2023-03-25T10:05:25.288Z,96285.28
2023-03-25T10:06:27.959Z,96278.50
2023-03-25T10:07:29.751Z,96277.53
2023-03-25T10:08:40.617Z,96287.31
2023-03-25T10:09:42.480Z,96294.47
2023-03-25T10:10:44.224Z,96292.41
2023-03-25T10:12:05.935Z,96285.09
2023-03-25T10:13:26.330Z,96275.94
2023-03-25T10:14:33.293Z,96284.53
2023-03-25T10:15:35.086Z,96286.06
2023-03-25T10:16:36.861Z,96282.88
2023-03-25T10:17:38.716Z,96287.31
2023-03-25T10:18:41.219Z,96281.75
2023-03-25T10:19:57.406Z,96281.69
2023-03-25T10:21:10.208Z,96273.72
2023-03-25T10:22:27.128Z,96259.34
2023-03-25T10:23:28.815Z,96262.38
2023-03-25T10:24:39.629Z,96268.59
2023-03-25T10:25:45.975Z,96266.84
2023-03-25T10:27:03.037Z,96260.97
2023-03-25T10:28:05.934Z,96257.13
2023-03-25T10:29:11.701Z,96261.56
2023-03-25T10:30:15.734Z,96267.13
2023-03-25T10:31:19.229Z,96272.69
2023-03-25T10:32:47.287Z,96274.59
2023-03-25T10:33:58.140Z,96277.91
2023-03-25T10:35:02.408Z,96278.66
2023-03-25T10:36:06.591Z,96263.31
2023-03-25T10:37:12.928Z,96251.56
2023-03-25T10:38:26.900Z,96255.63
2023-03-25T10:39:34.438Z,96265.63
2023-03-25T10:40:44.943Z,96261.44
2023-03-25T10:41:50.926Z,96263.84
2023-03-25T10:43:06.072Z,96262.56
2023-03-25T10:44:09.434Z,96270.19
2023-03-25T10:45:18.473Z,96280.13
2023-03-25T10:46:28.070Z,96274.31
2023-03-25T10:47:33.474Z,96277.19
2023-03-25T10:48:36.014Z,96279.25
2023-03-25T10:49:41.843Z,96278.47
2023-03-25T10:50:43.977Z,96276.41
2023-03-25T10:51:47.402Z,96280.34
2023-03-25T10:52:51.978Z,96280.91
2023-03-25T10:53:53.985Z,96279.00
2023-03-25T10:54:57.142Z,96280.03
2023-03-25T10:56:02.647Z,96280.81
2023-03-25T10:57:08.320Z,96282.97
2023-03-25T10:58:16.189Z,96270.66
2023-03-25T10:59:23.184Z,96256.53
2023-03-25T11:00:26.650Z,96254.13
2023-03-25T11:01:38.914Z,96263.66
2023-03-25T11:02:41.127Z,96270.97
2023-03-25T11:03:43.627Z,96268.03
2023-03-25T11:04:47.788Z,96255.00
2023-03-25T11:05:49.947Z,96253.50
2023-03-25T11:06:55.700Z,96252.38
2023-03-25T11:08:08.751Z,96257.06
2023-03-25T11:09:23.780Z,96247.13
2023-03-25T11:10:26.812Z,96233.38
2023-03-25T11:11:32.951Z,96235.50
2023-03-25T11:12:42.839Z,96238.13
2023-03-25T11:13:46.538Z,96239.19
2023-03-25T11:14:55.196Z,96241.38
2023-03-25T11:16:02.497Z,96247.47
2023-03-25T11:17:09.943Z,96249.13
2023-03-25T11:18:14.557Z,96248.09
2023-03-25T11:19:20.910Z,96240.91
2023-03-25T11:20:26.705Z,96236.97
2023-03-25T11:21:32.667Z,96236.97
2023-03-25T11:22:36.535Z,96241.81
2023-03-25T11:23:43.990Z,96235.50
2023-03-25T11:24:50.140Z,96245.78
2023-03-25T11:25:53.245Z,96246.88
2023-03-25T11:26:55.220Z,96260.56
2023-03-25T11:27:59.161Z,96244.75
2023-03-25T11:29:02.695Z,96234.16
2023-03-25T11:30:10.715Z,96234.66
2023-03-25T11:31:17.750Z,96247.16
2023-03-25T11:32:23.771Z,96245.06
2023-03-25T11:33:27.279Z,96246.84
2023-03-25T11:34:30.107Z,96253.41
2023-03-25T11:35:34.903Z,96243.66
2023-03-25T11:36:41.574Z,96231.75
2023-03-25T11:37:45.358Z,96219.38
2023-03-25T11:38:51.411Z,96215.84
2023-03-25T11:39:56.154Z,96226.19
2023-03-25T11:40:59.102Z,96241.38
2023-03-25T11:42:01.410Z,96235.81
2023-03-25T11:43:04.588Z,96239.97
2023-03-25T11:44:07.244Z,96231.13
2023-03-25T11:45:47.109Z,96233.47
2023-03-25T11:46:51.455Z,96237.91
2023-03-25T11:47:55.628Z,96239.88
2023-03-25T11:48:57.684Z,96236.78
2023-03-25T11:50:00.307Z,96235.50
2023-03-25T11:51:03.094Z,96231.84
2023-03-25T11:52:07.246Z,96231.84
2023-03-25T11:53:16.632Z,96225.75
2023-03-25T11:54:18.888Z,96220.16
2023-03-25T11:55:31.513Z,96219.84
2023-03-25T11:56:35.040Z,96224.53
2023-03-25T11:57:40.711Z,96232.97
2023-03-25T11:58:42.528Z,96233.75
2023-03-25T11:59:45.957Z,96233.53
2023-03-25T12:00:49.399Z,96233.28
2023-03-25T12:01:52.937Z,96231.44
2023-03-25T12:03:01.573Z,96224.06
2023-03-25T12:04:14.345Z,96218.28
2023-03-25T12:05:16.945Z,96223.75
2023-03-25T12:06:20.470Z,96222.72
2023-03-25T12:07:22.429Z,96226.69
2023-03-25T12:08:24.314Z,96226.22
2023-03-25T12:09:29.065Z,96230.56
2023-03-25T12:10:35.114Z,96230.03
2023-03-25T12:11:42.845Z,96227.59
2023-03-25T12:12:47.629Z,96224.97
2023-03-25T12:14:09.855Z,96221.88
2023-03-25T12:15:33.652Z,96219.28
2023-03-25T12:16:45.658Z,96215.28
2023-03-25T12:18:12.676Z,96207.00
2023-03-25T12:19:33.052Z,96209.69
2023-03-25T12:20:34.807Z,96206.63
2023-03-25T12:21:49.306Z,96199.84
2023-03-25T12:23:02.720Z,96204.59
2023-03-25T12:24:11.819Z,96198.28
2023-03-25T12:25:21.774Z,96193.50
2023-03-25T12:26:30.352Z,96201.19
2023-03-25T12:27:42.554Z,96201.16
2023-03-25T12:29:02.596Z,96204.84
2023-03-25T12:30:23.100Z,96199.75
2023-03-25T12:31:51.542Z,96189.41
2023-03-25T12:33:10.516Z,96188.28
2023-03-25T12:34:31.184Z,96186.66
2023-03-25T12:35:48.243Z,96195.91
2023-03-25T12:37:08.769Z,96187.75
2023-03-25T12:38:29.276Z,96185.41
2023-03-25T12:39:42.220Z,96182.78
2023-03-25T12:40:55.326Z,96178.53
2023-03-25T12:42:04.346Z,96172.19
2023-03-25T12:43:09.107Z,96179.78
2023-03-25T12:44:14.016Z,96188.38
2023-03-25T12:45:15.840Z,96185.13
2023-03-25T12:46:30.714Z,96195.09
2023-03-25T12:47:42.362Z,96186.84
2023-03-25T12:48:56.330Z,96183.44
2023-03-25T12:50:27.336Z,96185.72
2023-03-25T12:52:02.021Z,96188.75
2023-03-25T12:53:19.430Z,96165.69
2023-03-25T12:54:34.665Z,96150.25